sensor_id;sensor_type;location;lat;lon;timestamp;temperature;humidity
11666;DHT22;5889;51.350;6.708;2023-06-19T00:00:30;24.30;86.40
11666;DHT22;5889;51.350;6.708;2023-06-19T00:02:57;24.30;86.40
11666;DHT22;5889;51.350;6.708;2023-06-19T00:05:24;24.30;86.40
11666;DHT22;5889;51.350;6.708;2023-06-19T00:07:51;24.20;86.70
11666;DHT22;5889;51.350;6.708;2023-06-19T00:10:18;24.20;87.00
11666;DHT22;5889;51.350;6.708;2023-06-19T00:12:47;24.20;87.30
11666;DHT22;5889;51.350;6.708;2023-06-19T00:15:14;24.20;87.40
11666;DHT22;5889;51.350;6.708;2023-06-19T00:17:41;24.20;87.40
11666;DHT22;5889;51.350;6.708;2023-06-19T00:20:09;24.10;87.60
11666;DHT22;5889;51.350;6.708;2023-06-19T00:22:36;24.10;87.80
11666;DHT22;5889;51.350;6.708;2023-06-19T00:25:03;24.10;87.80
11666;DHT22;5889;51.350;6.708;2023-06-19T00:27:30;24.00;88.20
11666;DHT22;5889;51.350;6.708;2023-06-19T00:29:58;24.00;88.40
11666;DHT22;5889;51.350;6.708;2023-06-19T00:32:28;23.90;88.10
11666;DHT22;5889;51.350;6.708;2023-06-19T00:34:55;23.90;88.40
11666;DHT22;5889;51.350;6.708;2023-06-19T00:37:22;23.90;89.20
11666;DHT22;5889;51.350;6.708;2023-06-19T00:39:49;23.80;90.00
11666;DHT22;5889;51.350;6.708;2023-06-19T00:42:16;23.70;89.90
11666;DHT22;5889;51.350;6.708;2023-06-19T00:44:42;23.70;89.50
11666;DHT22;5889;51.350;6.708;2023-06-19T00:47:11;23.70;89.20
11666;DHT22;5889;51.350;6.708;2023-06-19T00:49:38;23.70;89.40
11666;DHT22;5889;51.350;6.708;2023-06-19T00:52:06;23.60;89.60
11666;DHT22;5889;51.350;6.708;2023-06-19T00:54:33;23.60;89.70
11666;DHT22;5889;51.350;6.708;2023-06-19T00:57:00;23.60;89.70
11666;DHT22;5889;51.350;6.708;2023-06-19T00:59:28;23.50;90.00
11666;DHT22;5889;51.350;6.708;2023-06-19T01:01:56;23.50;90.20
11666;DHT22;5889;51.350;6.708;2023-06-19T01:04:24;23.40;90.40
11666;DHT22;5889;51.350;6.708;2023-06-19T01:06:54;23.40;90.40
11666;DHT22;5889;51.350;6.708;2023-06-19T01:09:27;23.40;90.50
11666;DHT22;5889;51.350;6.708;2023-06-19T01:11:58;23.30;90.60
11666;DHT22;5889;51.350;6.708;2023-06-19T01:14:34;23.20;90.90
11666;DHT22;5889;51.350;6.708;2023-06-19T01:17:03;23.10;91.30
11666;DHT22;5889;51.350;6.708;2023-06-19T01:19:31;23.10;91.50
11666;DHT22;5889;51.350;6.708;2023-06-19T01:22:02;23.00;91.80
11666;DHT22;5889;51.350;6.708;2023-06-19T01:24:30;23.00;92.00
11666;DHT22;5889;51.350;6.708;2023-06-19T01:26:56;23.00;92.10
11666;DHT22;5889;51.350;6.708;2023-06-19T01:29:24;22.90;92.30
11666;DHT22;5889;51.350;6.708;2023-06-19T01:31:55;22.80;92.50
11666;DHT22;5889;51.350;6.708;2023-06-19T01:34:26;22.80;92.90
11666;DHT22;5889;51.350;6.708;2023-06-19T01:36:54;22.80;92.80
11666;DHT22;5889;51.350;6.708;2023-06-19T01:39:24;22.80;92.90
11666;DHT22;5889;51.350;6.708;2023-06-19T01:41:53;22.80;93.00
11666;DHT22;5889;51.350;6.708;2023-06-19T01:44:21;22.70;93.10
11666;DHT22;5889;51.350;6.708;2023-06-19T01:46:49;22.70;93.20
11666;DHT22;5889;51.350;6.708;2023-06-19T01:49:16;22.70;93.20
11666;DHT22;5889;51.350;6.708;2023-06-19T01:51:43;22.70;93.30
11666;DHT22;5889;51.350;6.708;2023-06-19T01:54:10;22.70;93.50
11666;DHT22;5889;51.350;6.708;2023-06-19T01:56:39;22.60;93.80
11666;DHT22;5889;51.350;6.708;2023-06-19T01:59:06;22.60;94.00
11666;DHT22;5889;51.350;6.708;2023-06-19T02:01:32;22.50;94.20
11666;DHT22;5889;51.350;6.708;2023-06-19T02:03:59;22.50;94.10
11666;DHT22;5889;51.350;6.708;2023-06-19T02:06:26;22.60;94.30
11666;DHT22;5889;51.350;6.708;2023-06-19T02:08:53;22.50;94.40
11666;DHT22;5889;51.350;6.708;2023-06-19T02:11:20;22.50;94.60
11666;DHT22;5889;51.350;6.708;2023-06-19T02:13:48;22.50;94.70
11666;DHT22;5889;51.350;6.708;2023-06-19T02:16:15;22.50;94.90
11666;DHT22;5889;51.350;6.708;2023-06-19T02:18:43;22.50;95.00
11666;DHT22;5889;51.350;6.708;2023-06-19T02:21:10;22.50;95.10
11666;DHT22;5889;51.350;6.708;2023-06-19T02:23:37;22.50;95.20
11666;DHT22;5889;51.350;6.708;2023-06-19T02:26:04;22.50;95.40
11666;DHT22;5889;51.350;6.708;2023-06-19T02:28:31;22.50;95.50
11666;DHT22;5889;51.350;6.708;2023-06-19T02:30:59;22.50;95.60
11666;DHT22;5889;51.350;6.708;2023-06-19T02:33:26;22.50;95.70
11666;DHT22;5889;51.350;6.708;2023-06-19T02:35:54;22.50;95.70
11666;DHT22;5889;51.350;6.708;2023-06-19T02:38:24;22.50;95.80
11666;DHT22;5889;51.350;6.708;2023-06-19T02:40:51;22.50;95.90
11666;DHT22;5889;51.350;6.708;2023-06-19T02:43:18;22.50;96.00
11666;DHT22;5889;51.350;6.708;2023-06-19T02:45:45;22.50;96.10
11666;DHT22;5889;51.350;6.708;2023-06-19T02:48:14;22.40;96.30
11666;DHT22;5889;51.350;6.708;2023-06-19T02:50:41;22.40;96.50
11666;DHT22;5889;51.350;6.708;2023-06-19T02:53:08;22.40;96.70
11666;DHT22;5889;51.350;6.708;2023-06-19T02:55:36;22.40;96.90
11666;DHT22;5889;51.350;6.708;2023-06-19T02:58:03;22.30;96.70
11666;DHT22;5889;51.350;6.708;2023-06-19T03:00:30;22.30;96.60
11666;DHT22;5889;51.350;6.708;2023-06-19T03:02:57;22.40;96.60
11666;DHT22;5889;51.350;6.708;2023-06-19T03:05:26;22.40;96.40
11666;DHT22;5889;51.350;6.708;2023-06-19T03:07:53;22.40;96.30
11666;DHT22;5889;51.350;6.708;2023-06-19T03:10:20;22.40;96.20
11666;DHT22;5889;51.350;6.708;2023-06-19T03:12:47;22.40;96.10
11666;DHT22;5889;51.350;6.708;2023-06-19T03:15:14;22.40;96.10
11666;DHT22;5889;51.350;6.708;2023-06-19T03:17:41;22.40;96.10
11666;DHT22;5889;51.350;6.708;2023-06-19T03:20:09;22.40;96.10
11666;DHT22;5889;51.350;6.708;2023-06-19T03:22:39;22.30;96.20
11666;DHT22;5889;51.350;6.708;2023-06-19T03:25:07;22.30;96.20
11666;DHT22;5889;51.350;6.708;2023-06-19T03:27:34;22.30;96.20
11666;DHT22;5889;51.350;6.708;2023-06-19T03:30:02;22.30;96.30
11666;DHT22;5889;51.350;6.708;2023-06-19T03:32:31;22.30;96.40
11666;DHT22;5889;51.350;6.708;2023-06-19T03:34:58;22.30;96.50
11666;DHT22;5889;51.350;6.708;2023-06-19T03:37:25;22.30;96.60
11666;DHT22;5889;51.350;6.708;2023-06-19T03:39:54;22.20;96.80
11666;DHT22;5889;51.350;6.708;2023-06-19T03:42:21;22.10;97.10
11666;DHT22;5889;51.350;6.708;2023-06-19T03:44:48;22.10;97.30
11666;DHT22;5889;51.350;6.708;2023-06-19T03:47:15;22.00;97.50
11666;DHT22;5889;51.350;6.708;2023-06-19T03:49:42;22.00;97.60
11666;DHT22;5889;51.350;6.708;2023-06-19T03:52:09;22.00;97.70
11666;DHT22;5889;51.350;6.708;2023-06-19T03:54:36;22.00;97.90
11666;DHT22;5889;51.350;6.708;2023-06-19T03:57:05;22.00;98.00
11666;DHT22;5889;51.350;6.708;2023-06-19T03:59:34;21.90;98.20
11666;DHT22;5889;51.350;6.708;2023-06-19T04:02:00;21.90;98.40
11666;DHT22;5889;51.350;6.708;2023-06-19T04:04:27;21.90;98.60
11666;DHT22;5889;51.350;6.708;2023-06-19T04:06:54;21.80;98.70
11666;DHT22;5889;51.350;6.708;2023-06-19T04:09:21;21.80;98.90
11666;DHT22;5889;51.350;6.708;2023-06-19T04:11:48;21.70;99.00
11666;DHT22;5889;51.350;6.708;2023-06-19T04:14:16;21.70;99.20
11666;DHT22;5889;51.350;6.708;2023-06-19T04:16:44;21.70;99.40
11666;DHT22;5889;51.350;6.708;2023-06-19T04:19:10;21.70;99.50
11666;DHT22;5889;51.350;6.708;2023-06-19T04:21:40;21.70;99.60
11666;DHT22;5889;51.350;6.708;2023-06-19T04:24:07;21.70;99.70
11666;DHT22;5889;51.350;6.708;2023-06-19T04:26:35;21.60;99.80
11666;DHT22;5889;51.350;6.708;2023-06-19T04:29:02;21.70;99.90
11666;DHT22;5889;51.350;6.708;2023-06-19T04:31:30;21.70;99.90
11666;DHT22;5889;51.350;6.708;2023-06-19T04:33:57;21.80;99.90
11666;DHT22;5889;51.350;6.708;2023-06-19T04:36:24;21.80;99.90
11666;DHT22;5889;51.350;6.708;2023-06-19T04:38:51;21.90;99.90
11666;DHT22;5889;51.350;6.708;2023-06-19T04:41:18;21.90;99.90
11666;DHT22;5889;51.350;6.708;2023-06-19T04:43:45;21.90;99.90
11666;DHT22;5889;51.350;6.708;2023-06-19T04:46:12;21.90;99.90
11666;DHT22;5889;51.350;6.708;2023-06-19T04:48:40;22.00;99.90
11666;DHT22;5889;51.350;6.708;2023-06-19T04:51:07;22.00;99.90
11666;DHT22;5889;51.350;6.708;2023-06-19T04:53:34;22.10;99.90
11666;DHT22;5889;51.350;6.708;2023-06-19T04:56:01;22.10;99.90
11666;DHT22;5889;51.350;6.708;2023-06-19T04:58:27;22.10;99.90
11666;DHT22;5889;51.350;6.708;2023-06-19T05:00:54;22.10;99.90
11666;DHT22;5889;51.350;6.708;2023-06-19T05:03:21;22.10;99.90
11666;DHT22;5889;51.350;6.708;2023-06-19T05:05:50;22.00;99.90
11666;DHT22;5889;51.350;6.708;2023-06-19T05:08:17;21.90;99.90
11666;DHT22;5889;51.350;6.708;2023-06-19T05:10:44;22.00;99.90
11666;DHT22;5889;51.350;6.708;2023-06-19T05:13:11;22.00;99.90
11666;DHT22;5889;51.350;6.708;2023-06-19T05:15:38;22.00;99.90
11666;DHT22;5889;51.350;6.708;2023-06-19T05:18:04;22.00;99.90
11666;DHT22;5889;51.350;6.708;2023-06-19T05:20:31;22.10;99.90
11666;DHT22;5889;51.350;6.708;2023-06-19T05:23:00;22.10;99.90
11666;DHT22;5889;51.350;6.708;2023-06-19T05:25:27;22.10;99.90
11666;DHT22;5889;51.350;6.708;2023-06-19T05:27:54;22.20;99.90
11666;DHT22;5889;51.350;6.708;2023-06-19T05:30:21;22.30;99.90
11666;DHT22;5889;51.350;6.708;2023-06-19T05:32:49;22.40;99.90
11666;DHT22;5889;51.350;6.708;2023-06-19T05:35:17;22.40;99.90
11666;DHT22;5889;51.350;6.708;2023-06-19T05:37:45;22.40;99.90
11666;DHT22;5889;51.350;6.708;2023-06-19T05:40:13;22.40;99.90
11666;DHT22;5889;51.350;6.708;2023-06-19T05:42:40;22.50;99.90
11666;DHT22;5889;51.350;6.708;2023-06-19T05:45:08;22.50;99.90
11666;DHT22;5889;51.350;6.708;2023-06-19T05:47:35;22.50;99.90
11666;DHT22;5889;51.350;6.708;2023-06-19T05:50:02;22.50;99.90
11666;DHT22;5889;51.350;6.708;2023-06-19T05:52:29;22.60;99.90
11666;DHT22;5889;51.350;6.708;2023-06-19T05:54:56;22.60;99.90
11666;DHT22;5889;51.350;6.708;2023-06-19T05:57:25;22.60;99.90
11666;DHT22;5889;51.350;6.708;2023-06-19T05:59:52;22.50;99.90
11666;DHT22;5889;51.350;6.708;2023-06-19T06:02:19;22.40;99.90
11666;DHT22;5889;51.350;6.708;2023-06-19T06:04:46;22.40;99.90
11666;DHT22;5889;51.350;6.708;2023-06-19T06:07:13;22.40;99.90
11666;DHT22;5889;51.350;6.708;2023-06-19T06:09:40;22.40;99.90
11666;DHT22;5889;51.350;6.708;2023-06-19T06:12:08;22.40;99.90
11666;DHT22;5889;51.350;6.708;2023-06-19T06:14:36;22.40;99.90
11666;DHT22;5889;51.350;6.708;2023-06-19T06:17:04;22.30;99.90
11666;DHT22;5889;51.350;6.708;2023-06-19T06:19:31;22.30;99.90
11666;DHT22;5889;51.350;6.708;2023-06-19T06:21:58;22.30;99.90
11666;DHT22;5889;51.350;6.708;2023-06-19T06:24:25;22.30;99.90
11666;DHT22;5889;51.350;6.708;2023-06-19T06:26:52;22.40;99.90
11666;DHT22;5889;51.350;6.708;2023-06-19T06:29:20;22.40;99.90
11666;DHT22;5889;51.350;6.708;2023-06-19T06:31:48;22.50;99.90
11666;DHT22;5889;51.350;6.708;2023-06-19T06:34:18;22.50;99.90
11666;DHT22;5889;51.350;6.708;2023-06-19T06:36:45;22.50;99.90
11666;DHT22;5889;51.350;6.708;2023-06-19T06:39:12;22.50;99.90
11666;DHT22;5889;51.350;6.708;2023-06-19T06:41:39;22.50;99.90
11666;DHT22;5889;51.350;6.708;2023-06-19T06:44:12;22.50;99.90
11666;DHT22;5889;51.350;6.708;2023-06-19T06:46:39;22.60;99.90
11666;DHT22;5889;51.350;6.708;2023-06-19T06:49:07;22.60;99.90
11666;DHT22;5889;51.350;6.708;2023-06-19T06:51:34;22.50;99.90
11666;DHT22;5889;51.350;6.708;2023-06-19T06:54:01;22.50;99.90
11666;DHT22;5889;51.350;6.708;2023-06-19T06:56:28;22.40;99.90
11666;DHT22;5889;51.350;6.708;2023-06-19T06:58:55;22.30;99.90
11666;DHT22;5889;51.350;6.708;2023-06-19T07:01:22;22.10;99.90
11666;DHT22;5889;51.350;6.708;2023-06-19T07:03:49;22.10;99.90
11666;DHT22;5889;51.350;6.708;2023-06-19T07:06:17;22.00;99.90
11666;DHT22;5889;51.350;6.708;2023-06-19T07:08:44;22.10;99.90
11666;DHT22;5889;51.350;6.708;2023-06-19T07:11:13;22.10;99.90
11666;DHT22;5889;51.350;6.708;2023-06-19T07:13:40;22.20;99.90
11666;DHT22;5889;51.350;6.708;2023-06-19T07:16:07;22.30;99.90
11666;DHT22;5889;51.350;6.708;2023-06-19T07:18:34;22.40;99.90
11666;DHT22;5889;51.350;6.708;2023-06-19T07:21:08;22.40;99.90
11666;DHT22;5889;51.350;6.708;2023-06-19T07:23:41;22.60;99.90
11666;DHT22;5889;51.350;6.708;2023-06-19T07:26:08;22.70;99.90
11666;DHT22;5889;51.350;6.708;2023-06-19T07:28:35;22.80;99.90
11666;DHT22;5889;51.350;6.708;2023-06-19T07:31:02;22.80;99.90
11666;DHT22;5889;51.350;6.708;2023-06-19T07:33:29;23.00;99.90
11666;DHT22;5889;51.350;6.708;2023-06-19T07:35:56;23.10;99.90
11666;DHT22;5889;51.350;6.708;2023-06-19T07:38:23;23.20;99.90
11666;DHT22;5889;51.350;6.708;2023-06-19T07:40:52;23.10;99.90
11666;DHT22;5889;51.350;6.708;2023-06-19T07:43:19;22.90;99.90
11666;DHT22;5889;51.350;6.708;2023-06-19T07:45:47;22.70;99.90
11666;DHT22;5889;51.350;6.708;2023-06-19T07:48:14;22.50;99.90
11666;DHT22;5889;51.350;6.708;2023-06-19T07:50:41;22.40;99.90
11666;DHT22;5889;51.350;6.708;2023-06-19T07:53:08;22.40;99.90
11666;DHT22;5889;51.350;6.708;2023-06-19T07:55:35;22.40;99.90
11666;DHT22;5889;51.350;6.708;2023-06-19T07:58:04;22.40;99.90
11666;DHT22;5889;51.350;6.708;2023-06-19T08:00:31;22.40;99.90
11666;DHT22;5889;51.350;6.708;2023-06-19T08:02:58;22.80;99.90
11666;DHT22;5889;51.350;6.708;2023-06-19T08:05:25;23.10;99.90
11666;DHT22;5889;51.350;6.708;2023-06-19T08:07:52;23.20;99.90
11666;DHT22;5889;51.350;6.708;2023-06-19T08:10:19;23.40;99.90
11666;DHT22;5889;51.350;6.708;2023-06-19T08:12:46;23.60;99.90
11666;DHT22;5889;51.350;6.708;2023-06-19T08:15:14;23.80;99.90
11666;DHT22;5889;51.350;6.708;2023-06-19T08:17:41;24.00;99.90
11666;DHT22;5889;51.350;6.708;2023-06-19T08:20:09;24.20;99.90
11666;DHT22;5889;51.350;6.708;2023-06-19T08:22:36;24.50;99.90
11666;DHT22;5889;51.350;6.708;2023-06-19T08:25:04;24.70;99.90
11666;DHT22;5889;51.350;6.708;2023-06-19T08:27:31;24.90;99.90
11666;DHT22;5889;51.350;6.708;2023-06-19T08:29:58;25.20;99.90
11666;DHT22;5889;51.350;6.708;2023-06-19T08:32:26;25.20;99.20
11666;DHT22;5889;51.350;6.708;2023-06-19T08:34:53;25.10;99.20
11666;DHT22;5889;51.350;6.708;2023-06-19T08:37:20;25.00;98.90
11666;DHT22;5889;51.350;6.708;2023-06-19T08:39:47;25.00;98.90
11666;DHT22;5889;51.350;6.708;2023-06-19T08:42:14;25.10;98.50
11666;DHT22;5889;51.350;6.708;2023-06-19T08:44:41;25.20;97.80
11666;DHT22;5889;51.350;6.708;2023-06-19T08:47:09;25.00;97.80
11666;DHT22;5889;51.350;6.708;2023-06-19T08:49:38;25.00;97.70
11666;DHT22;5889;51.350;6.708;2023-06-19T08:52:06;25.10;97.80
11666;DHT22;5889;51.350;6.708;2023-06-19T08:54:33;25.10;97.80
11666;DHT22;5889;51.350;6.708;2023-06-19T08:57:10;25.20;97.20
11666;DHT22;5889;51.350;6.708;2023-06-19T08:59:37;25.40;97.20
11666;DHT22;5889;51.350;6.708;2023-06-19T09:02:05;25.70;97.10
11666;DHT22;5889;51.350;6.708;2023-06-19T09:04:32;25.90;96.30
11666;DHT22;5889;51.350;6.708;2023-06-19T09:07:02;25.80;95.60
11666;DHT22;5889;51.350;6.708;2023-06-19T09:09:29;25.80;95.30
11666;DHT22;5889;51.350;6.708;2023-06-19T09:11:59;25.80;95.70
11666;DHT22;5889;51.350;6.708;2023-06-19T09:14:33;25.90;94.70
11666;DHT22;5889;51.350;6.708;2023-06-19T09:17:01;26.10;94.40
11666;DHT22;5889;51.350;6.708;2023-06-19T09:19:29;26.20;94.20
11666;DHT22;5889;51.350;6.708;2023-06-19T09:22:01;26.40;92.80
11666;DHT22;5889;51.350;6.708;2023-06-19T09:24:35;26.70;92.40
11666;DHT22;5889;51.350;6.708;2023-06-19T09:27:09;26.90;91.00
11666;DHT22;5889;51.350;6.708;2023-06-19T09:29:39;27.00;91.20
11666;DHT22;5889;51.350;6.708;2023-06-19T09:32:19;27.10;90.80
11666;DHT22;5889;51.350;6.708;2023-06-19T09:34:47;27.30;90.00
11666;DHT22;5889;51.350;6.708;2023-06-19T09:37:18;27.50;88.90
11666;DHT22;5889;51.350;6.708;2023-06-19T09:39:50;27.60;88.60
11666;DHT22;5889;51.350;6.708;2023-06-19T09:42:21;27.70;87.90
11666;DHT22;5889;51.350;6.708;2023-06-19T09:44:51;27.80;87.60
11666;DHT22;5889;51.350;6.708;2023-06-19T09:47:22;27.60;87.50
11666;DHT22;5889;51.350;6.708;2023-06-19T09:49:54;27.50;88.00
11666;DHT22;5889;51.350;6.708;2023-06-19T09:52:23;27.30;87.80
11666;DHT22;5889;51.350;6.708;2023-06-19T09:54:51;27.00;88.40
11666;DHT22;5889;51.350;6.708;2023-06-19T09:57:18;26.80;88.50
11666;DHT22;5889;51.350;6.708;2023-06-19T09:59:47;27.00;88.40
11666;DHT22;5889;51.350;6.708;2023-06-19T10:02:17;27.50;87.60
11666;DHT22;5889;51.350;6.708;2023-06-19T10:04:46;27.80;85.20
11666;DHT22;5889;51.350;6.708;2023-06-19T10:07:17;28.00;84.50
11666;DHT22;5889;51.350;6.708;2023-06-19T10:10:02;28.30;83.40
11666;DHT22;5889;51.350;6.708;2023-06-19T10:12:39;28.50;82.50
11666;DHT22;5889;51.350;6.708;2023-06-19T10:15:11;28.70;82.90
11666;DHT22;5889;51.350;6.708;2023-06-19T10:17:43;29.00;81.70
11666;DHT22;5889;51.350;6.708;2023-06-19T10:20:26;29.20;81.20
11666;DHT22;5889;51.350;6.708;2023-06-19T10:22:58;29.20;80.80
11666;DHT22;5889;51.350;6.708;2023-06-19T10:25:30;29.30;81.10
11666;DHT22;5889;51.350;6.708;2023-06-19T10:27:58;29.60;79.70
11666;DHT22;5889;51.350;6.708;2023-06-19T10:30:25;29.40;79.20
11666;DHT22;5889;51.350;6.708;2023-06-19T10:32:53;29.10;79.50
11666;DHT22;5889;51.350;6.708;2023-06-19T10:35:20;29.30;79.00
11666;DHT22;5889;51.350;6.708;2023-06-19T10:37:49;29.30;79.40
11666;DHT22;5889;51.350;6.708;2023-06-19T10:40:17;29.40;79.40
11666;DHT22;5889;51.350;6.708;2023-06-19T10:42:46;29.40;78.70
11666;DHT22;5889;51.350;6.708;2023-06-19T10:45:14;29.20;79.30
11666;DHT22;5889;51.350;6.708;2023-06-19T10:47:43;29.30;78.70
11666;DHT22;5889;51.350;6.708;2023-06-19T10:50:12;29.50;77.80
11666;DHT22;5889;51.350;6.708;2023-06-19T10:52:42;29.60;76.90
11666;DHT22;5889;51.350;6.708;2023-06-19T10:55:11;29.80;75.40
11666;DHT22;5889;51.350;6.708;2023-06-19T10:57:38;29.90;75.20
11666;DHT22;5889;51.350;6.708;2023-06-19T11:00:10;29.90;75.40
11666;DHT22;5889;51.350;6.708;2023-06-19T11:02:39;29.80;76.10
11666;DHT22;5889;51.350;6.708;2023-06-19T11:05:09;29.50;76.20
11666;DHT22;5889;51.350;6.708;2023-06-19T11:07:37;29.40;77.40
11666;DHT22;5889;51.350;6.708;2023-06-19T11:10:05;29.70;75.20
11666;DHT22;5889;51.350;6.708;2023-06-19T11:12:32;29.80;74.30
11666;DHT22;5889;51.350;6.708;2023-06-19T11:15:03;29.70;73.90
11666;DHT22;5889;51.350;6.708;2023-06-19T11:17:31;29.90;74.00
11666;DHT22;5889;51.350;6.708;2023-06-19T11:19:59;30.10;74.10
11666;DHT22;5889;51.350;6.708;2023-06-19T11:22:39;30.20;74.10
11666;DHT22;5889;51.350;6.708;2023-06-19T11:25:07;30.30;74.40
11666;DHT22;5889;51.350;6.708;2023-06-19T11:27:38;30.50;74.80
11666;DHT22;5889;51.350;6.708;2023-06-19T11:30:06;30.70;73.90
11666;DHT22;5889;51.350;6.708;2023-06-19T11:32:37;30.60;72.80
11666;DHT22;5889;51.350;6.708;2023-06-19T11:35:09;30.30;72.40
11666;DHT22;5889;51.350;6.708;2023-06-19T11:37:40;29.90;73.00
11666;DHT22;5889;51.350;6.708;2023-06-19T11:40:09;29.40;73.90
11666;DHT22;5889;51.350;6.708;2023-06-19T11:42:47;29.30;74.50
11666;DHT22;5889;51.350;6.708;2023-06-19T11:45:15;29.60;74.90
11666;DHT22;5889;51.350;6.708;2023-06-19T11:47:45;30.00;73.50
11666;DHT22;5889;51.350;6.708;2023-06-19T11:50:13;30.00;73.20
11666;DHT22;5889;51.350;6.708;2023-06-19T11:52:42;30.20;73.00
11666;DHT22;5889;51.350;6.708;2023-06-19T11:55:10;30.40;73.40
11666;DHT22;5889;51.350;6.708;2023-06-19T11:57:38;30.60;72.80
11666;DHT22;5889;51.350;6.708;2023-06-19T12:00:14;30.40;71.40
11666;DHT22;5889;51.350;6.708;2023-06-19T12:02:41;30.40;72.40
11666;DHT22;5889;51.350;6.708;2023-06-19T12:05:09;30.60;73.20
11666;DHT22;5889;51.350;6.708;2023-06-19T12:07:37;31.00;71.80
11666;DHT22;5889;51.350;6.708;2023-06-19T12:10:05;31.20;71.70
11666;DHT22;5889;51.350;6.708;2023-06-19T12:12:36;31.30;70.50
11666;DHT22;5889;51.350;6.708;2023-06-19T12:15:05;31.40;70.50
11666;DHT22;5889;51.350;6.708;2023-06-19T12:17:32;31.20;69.90
11666;DHT22;5889;51.350;6.708;2023-06-19T12:19:59;31.10;70.00
11666;DHT22;5889;51.350;6.708;2023-06-19T12:22:29;31.00;70.10
11666;DHT22;5889;51.350;6.708;2023-06-19T12:24:56;31.00;69.60
11666;DHT22;5889;51.350;6.708;2023-06-19T12:27:23;31.00;69.40
11666;DHT22;5889;51.350;6.708;2023-06-19T12:29:50;31.00;70.00
11666;DHT22;5889;51.350;6.708;2023-06-19T12:32:17;30.90;70.00
11666;DHT22;5889;51.350;6.708;2023-06-19T12:34:44;31.10;70.40
11666;DHT22;5889;51.350;6.708;2023-06-19T12:37:13;30.90;68.40
11666;DHT22;5889;51.350;6.708;2023-06-19T12:39:42;30.40;69.70
11666;DHT22;5889;51.350;6.708;2023-06-19T12:42:09;30.40;69.90
11666;DHT22;5889;51.350;6.708;2023-06-19T12:44:37;30.60;69.50
11666;DHT22;5889;51.350;6.708;2023-06-19T12:47:05;30.60;69.60
11666;DHT22;5889;51.350;6.708;2023-06-19T12:49:32;30.40;69.90
11666;DHT22;5889;51.350;6.708;2023-06-19T12:51:59;30.30;70.10
11666;DHT22;5889;51.350;6.708;2023-06-19T12:54:26;30.40;70.50
11666;DHT22;5889;51.350;6.708;2023-06-19T12:56:55;30.70;70.40
11666;DHT22;5889;51.350;6.708;2023-06-19T12:59:22;31.20;69.80
11666;DHT22;5889;51.350;6.708;2023-06-19T13:01:49;31.50;68.90
11666;DHT22;5889;51.350;6.708;2023-06-19T13:04:16;31.60;68.80
11666;DHT22;5889;51.350;6.708;2023-06-19T13:06:43;31.50;68.70
11666;DHT22;5889;51.350;6.708;2023-06-19T13:09:10;31.20;68.40
11666;DHT22;5889;51.350;6.708;2023-06-19T13:11:37;31.10;68.60
11666;DHT22;5889;51.350;6.708;2023-06-19T13:14:05;31.10;67.60
11666;DHT22;5889;51.350;6.708;2023-06-19T13:16:32;31.40;66.30
11666;DHT22;5889;51.350;6.708;2023-06-19T13:18:59;31.50;65.80
11666;DHT22;5889;51.350;6.708;2023-06-19T13:21:26;31.50;66.20
11666;DHT22;5889;51.350;6.708;2023-06-19T13:23:53;31.50;67.10
11666;DHT22;5889;51.350;6.708;2023-06-19T13:26:20;31.30;67.00
11666;DHT22;5889;51.350;6.708;2023-06-19T13:28:47;31.20;67.20
11666;DHT22;5889;51.350;6.708;2023-06-19T13:31:15;30.80;68.20
11666;DHT22;5889;51.350;6.708;2023-06-19T13:33:42;30.60;68.30
11666;DHT22;5889;51.350;6.708;2023-06-19T13:36:09;30.40;68.60
11666;DHT22;5889;51.350;6.708;2023-06-19T13:38:36;30.70;68.80
11666;DHT22;5889;51.350;6.708;2023-06-19T13:41:13;30.80;68.20
11666;DHT22;5889;51.350;6.708;2023-06-19T13:43:40;31.00;67.90
11666;DHT22;5889;51.350;6.708;2023-06-19T13:46:08;31.10;68.00
11666;DHT22;5889;51.350;6.708;2023-06-19T13:48:36;31.30;67.60
11666;DHT22;5889;51.350;6.708;2023-06-19T13:51:03;31.50;66.30
11666;DHT22;5889;51.350;6.708;2023-06-19T13:53:30;31.80;66.40
11666;DHT22;5889;51.350;6.708;2023-06-19T13:55:57;32.10;65.70
11666;DHT22;5889;51.350;6.708;2023-06-19T13:58:24;32.10;66.30
11666;DHT22;5889;51.350;6.708;2023-06-19T14:00:51;32.20;64.10
11666;DHT22;5889;51.350;6.708;2023-06-19T14:03:18;31.80;65.10
11666;DHT22;5889;51.350;6.708;2023-06-19T14:05:47;31.50;65.30
11666;DHT22;5889;51.350;6.708;2023-06-19T14:08:14;31.20;65.50
11666;DHT22;5889;51.350;6.708;2023-06-19T14:10:41;31.20;65.80
11666;DHT22;5889;51.350;6.708;2023-06-19T14:13:09;31.40;65.30
11666;DHT22;5889;51.350;6.708;2023-06-19T14:15:35;31.70;65.50
11666;DHT22;5889;51.350;6.708;2023-06-19T14:18:02;32.00;65.20
11666;DHT22;5889;51.350;6.708;2023-06-19T14:20:29;32.30;65.40
11666;DHT22;5889;51.350;6.708;2023-06-19T14:22:58;32.50;65.10
11666;DHT22;5889;51.350;6.708;2023-06-19T14:25:27;32.80;64.80
11666;DHT22;5889;51.350;6.708;2023-06-19T14:27:54;32.90;64.00
11666;DHT22;5889;51.350;6.708;2023-06-19T14:30:21;32.80;63.60
11666;DHT22;5889;51.350;6.708;2023-06-19T14:32:48;33.00;64.20
11666;DHT22;5889;51.350;6.708;2023-06-19T14:35:15;33.30;64.00
11666;DHT22;5889;51.350;6.708;2023-06-19T14:37:45;33.50;63.40
11666;DHT22;5889;51.350;6.708;2023-06-19T14:40:14;33.30;63.30
11666;DHT22;5889;51.350;6.708;2023-06-19T14:42:41;33.30;63.60
11666;DHT22;5889;51.350;6.708;2023-06-19T14:45:08;33.30;63.10
11666;DHT22;5889;51.350;6.708;2023-06-19T14:47:35;33.40;63.00
11666;DHT22;5889;51.350;6.708;2023-06-19T14:50:03;33.50;62.70
11666;DHT22;5889;51.350;6.708;2023-06-19T14:52:30;33.50;62.50
11666;DHT22;5889;51.350;6.708;2023-06-19T14:54:57;33.50;62.80
11666;DHT22;5889;51.350;6.708;2023-06-19T14:57:26;33.50;63.00
11666;DHT22;5889;51.350;6.708;2023-06-19T14:59:53;33.30;62.70
11666;DHT22;5889;51.350;6.708;2023-06-19T15:02:20;33.00;63.30
11666;DHT22;5889;51.350;6.708;2023-06-19T15:04:47;33.10;63.40
11666;DHT22;5889;51.350;6.708;2023-06-19T15:07:14;33.30;63.20
11666;DHT22;5889;51.350;6.708;2023-06-19T15:09:40;33.20;63.30
11666;DHT22;5889;51.350;6.708;2023-06-19T15:12:08;32.90;63.40
11666;DHT22;5889;51.350;6.708;2023-06-19T15:14:37;32.80;63.10
11666;DHT22;5889;51.350;6.708;2023-06-19T15:17:04;32.90;62.80
11666;DHT22;5889;51.350;6.708;2023-06-19T15:19:31;33.20;62.40
11666;DHT22;5889;51.350;6.708;2023-06-19T15:21:58;33.50;62.70
11666;DHT22;5889;51.350;6.708;2023-06-19T15:24:25;33.60;62.10
11666;DHT22;5889;51.350;6.708;2023-06-19T15:26:52;33.70;62.00
11666;DHT22;5889;51.350;6.708;2023-06-19T15:29:19;33.80;61.40
11666;DHT22;5889;51.350;6.708;2023-06-19T15:31:47;33.90;61.60
11666;DHT22;5889;51.350;6.708;2023-06-19T15:34:14;34.10;61.30
11666;DHT22;5889;51.350;6.708;2023-06-19T15:36:41;33.90;61.20
11666;DHT22;5889;51.350;6.708;2023-06-19T15:39:09;33.50;61.30
11666;DHT22;5889;51.350;6.708;2023-06-19T15:41:36;33.30;62.00
11666;DHT22;5889;51.350;6.708;2023-06-19T15:44:03;33.10;61.40
11666;DHT22;5889;51.350;6.708;2023-06-19T15:46:30;32.80;62.00
11666;DHT22;5889;51.350;6.708;2023-06-19T15:48:59;32.80;62.60